Northville, New York
Current Conditions -  °F | °C
As of 4:55 PM on Saturday 25 Oct 2014 (Local Time) from KNY0 Reporting Station
Overcast Overcast  
Wind Chill: 58°   Ceiling: 7500
Heat Index: 58°   Visibility: 10mi
Dew Point: 44°   Wind: 6mph
Humidity: 59%   Direction: 200°SSW
Pressure: 29.58"   Gusts: NA
Location:  43.23°N, 74.17°W
Report Text: KNY0 252055Z AUTO 20005KT 10SM SCT040 BKN075 OVC100 14/06 A2958 RMK AO2 T01420064
Loading
Personal Weather Stations






























Interactive Weather Map
Tropical Storm Tracking
New forecast layout! Learn more

10-Day Weather Forecast

Advertisements
Track Severe Weather on mobile